Weather observations for the past three days for
Point Salines International Airport
Metric (Imperial)
Date Time (ast) Wind (kph) Vis. (km) Weather Sky Cond. Temperature (ºC) Relative Humidity Wind Chill (°C) Heat Index (°C) Pressure Precipitation (cm)
Air Dwpt 6 hour altimeter (cm) sea level (mb) 1 hr 3 hr 6 hr
Max. Min.
02 15:00 E 33 0.00 A Few Clouds and Breezy FEW019 30 23 66% 34 0 0.0
02 14:00 E 31 0.00 A Few Clouds FEW019 30 24 70% 35 0 0.0
02 12:00 SE 28 0.00 A Few Clouds FEW020 30 23 66% 34 0 0.0
02 11:00 SE 28 0.00 A Few Clouds FEW021 30 23 66% 34 0 0.0
02 10:00 SE 28 0.00 A Few Clouds FEW021 29 23 70% 33 0 0.0
02 09:00 SE 26 0.00 A Few Clouds FEW020 29 22 66% 32 0 0.0
02 08:00 E 22 0.00 A Few Clouds FEW020 31 22 59% 35 0 0.0
02 07:00 SE 19 0.00 A Few Clouds FEW020 28 22 70% 31 0 0.0
02 06:00 SE 24 0.00 A Few Clouds FEW019 27 22 74% 29 0 0.0
02 04:00 E 22 0.00 A Few Clouds FEW019 27 22 74% 29 0 0.0
02 03:00 SE 20 0.00 A Few Clouds FEW019 27 22 74% 29 0 0.0
02 02:00 E 20 0.00 A Few Clouds FEW019 27 22 74% 29 0 0.0
02 01:00 E 20 0.00 A Few Clouds FEW019 27 22 74% 29 0 0.0
02 00:00 SE 20 0.00 A Few Clouds FEW019 27 22 74% 29 0 0.0
01 23:00 E 22 0.00 A Few Clouds FEW019 27 23 79% 30 0 0.0
01 22:00 E 24 0.00 A Few Clouds FEW019 27 22 74% 29 0 0.0
01 21:00 E 28 0.00 A Few Clouds FEW019 27 22 74% 29 0 0.0
01 20:00 E 24 0.00 A Few Clouds FEW020 27 23 79% 30 0 0.0
01 19:00 E 24 0.00 A Few Clouds FEW020 27 23 79% 30 0 0.0
01 18:00 E 28 0.00 A Few Clouds FEW021 28 23 74% 31 0 0.0
01 17:00 SE 26 0.00 A Few Clouds FEW021 29 23 70% 33 0 0.0
01 16:00 SE 33 0.00 A Few Clouds and Breezy FEW023 29 23 70% 33 0 0.0
01 15:00 SE 31 0.00 A Few Clouds FEW022 30 24 70% 35 0 0.0
01 14:00 SE 30 0.00 A Few Clouds FEW024 30 23 66% 34 0 0.0
01 12:00 SE 30 0.00 A Few Clouds FEW024 29 23 70% 33 0 0.0
01 11:00 SE 28 0.00 A Few Clouds FEW023 29 22 66% 32 0 0.0
01 10:00 SE 28 0.00 A Few Clouds FEW024 30 22 62% 33 0 0.0
01 09:00 SE 28 0.00 A Few Clouds FEW022 29 23 70% 33 0 0.0
01 08:00 SE 24 0.00 A Few Clouds FEW021 30 21 59% 33 0 0.0
01 07:00 E 22 0.00 A Few Clouds FEW021 28 21 66% 30 0 0.0
01 06:00 E 13 0.00 A Few Clouds FEW019 25 21 79% 26 0 0.0
01 05:00 Vrbl 4 0.00 A Few Clouds FEW019 25 21 79% 26 0 0.0
01 04:00 E 13 0.00 A Few Clouds FEW019 25 21 79% 26 0 0.0
01 03:00 E 11 0.00 A Few Clouds FEW019 26 21 74% 27 0 0.0
01 02:00 E 19 0.00 A Few Clouds FEW019 26 22 79% 28 0 0.0
01 01:00 E 20 0.00 A Few Clouds FEW019 27 22 74% 29 0 0.0
01 00:00 E 20 0.00 A Few Clouds FEW019 27 22 74% 29 0 0.0
30 23:00 E 19 0.00 A Few Clouds FEW019 27 22 74% 29 0 0.0
30 22:00 E 19 0.00 A Few Clouds FEW019 27 22 74% 29 0 0.0
30 21:00 E 20 0.00 A Few Clouds FEW019 27 22 74% 29 0 0.0
30 20:00 E 20 0.00 A Few Clouds FEW019 27 22 74% 29 0 0.0
30 19:00 E 24 0.00 A Few Clouds FEW020 27 22 74% 29 0 0.0
30 18:00 E 22 0.00 A Few Clouds FEW020 28 23 74% 31 0 0.0
30 17:00 SE 22 0.00 A Few Clouds FEW021 29 23 70% 33 0 0.0
30 16:00 SE 28 0.00 A Few Clouds FEW021 29 23 70% 33 0 0.0
30 15:00 SE 26 0.00 A Few Clouds FEW021 29 23 70% 33 0 0.0
30 14:00 SE 28 0.00 A Few Clouds FEW020 29 23 70% 33 0 0.0
30 13:00 SE 30 0.00 A Few Clouds FEW019 30 24 70% 35 0 0.0
30 12:00 SE 31 0.00 A Few Clouds FEW020 29 23 70% 33 0 0.0
30 11:00 SE 30 0.00 A Few Clouds FEW019 29 23 70% 33 0 0.0
30 10:00 SE 30 0.00 A Few Clouds FEW019 30 23 66% 34 0 0.0
30 09:00 SE 30 0.00 Showers in Vicinity FEW019 29 23 70% 33 0 0.0
30 08:00 SE 26 0.00 Showers in Vicinity FEW019 30 23 66% 34 0 0.0
30 07:00 E 26 0.00 Showers in Vicinity FEW019 28 23 74% 31 0 0.0
30 06:00 E 22 0.00 A Few Clouds FEW019 27 23 79% 30 0 0.0
30 05:00 E 19 0.00 A Few Clouds FEW019 26 23 84% 28 0 0.0
30 04:00 E 19 0.00 A Few Clouds FEW019 26 23 84% 28 0 0.0
30 03:00 SE 15 0.00 A Few Clouds FEW019 26 23 84% 28 0 0.0
30 02:00 E 13 0.00 A Few Clouds FEW019 26 23 84% 28 0 0.0
30 01:00 SE 19 0.00 A Few Clouds FEW019 27 23 79% 30 0 0.0
30 00:00 E 19 0.00 A Few Clouds FEW019 27 23 79% 30 0 0.0
29 23:00 E 17 0.00 A Few Clouds FEW019 27 23 79% 30 0 0.0
29 22:00 SE 24 0.00 A Few Clouds FEW018 27 23 79% 30 0 0.0
29 21:00 E 22 0.00 A Few Clouds FEW018 27 23 79% 30 0 0.0
29 20:00 E 19 0.00 A Few Clouds FEW019 27 23 79% 30 0 0.0
29 19:00 E 22 0.00 A Few Clouds FEW019 27 23 79% 30 0 0.0
29 18:00 E 19 0.00 A Few Clouds FEW020 28 23 74% 31 0 0.0
29 17:00 E 24 0.00 Showers in Vicinity FEW020 30 23 66% 34 0 0.0
29 16:00 E 30 0.00 Showers in Vicinity FEW020 30 23 66% 34 0 0.0
Date Time (ast) Wind (kph) Vis. (km) Weather Sky Cond. Air Dwpt Max. Min. Relative Humidity Wind Chill (°C) Heat Index (°C) altimeter (cm) sea level (mb) 1 hr 3 hr 6 hr
6 hour
Temperature (ºC) Pressure Precipitation (cm)